sensor_id;sensor_type;location;lat;lon;timestamp;temperature;humidity
77496;SHT31;66600;48.378;9.948;2023-02-19T00:01:15;8.95;75.81
77496;SHT31;66600;48.378;9.948;2023-02-19T00:03:46;8.95;75.87
77496;SHT31;66600;48.378;9.948;2023-02-19T00:06:11;8.95;75.98
77496;SHT31;66600;48.378;9.948;2023-02-19T00:08:37;8.89;76.11
77496;SHT31;66600;48.378;9.948;2023-02-19T00:11:06;8.88;76.25
77496;SHT31;66600;48.378;9.948;2023-02-19T00:13:36;8.79;76.31
77496;SHT31;66600;48.378;9.948;2023-02-19T00:16:09;8.81;76.52
77496;SHT31;66600;48.378;9.948;2023-02-19T00:18:36;8.78;76.53
77496;SHT31;66600;48.378;9.948;2023-02-19T00:21:02;8.79;76.66
77496;SHT31;66600;48.378;9.948;2023-02-19T00:23:27;8.75;76.79
77496;SHT31;66600;48.378;9.948;2023-02-19T00:25:53;8.73;76.76
77496;SHT31;66600;48.378;9.948;2023-02-19T00:28:19;8.76;76.71
77496;SHT31;66600;48.378;9.948;2023-02-19T00:30:45;8.72;76.95
77496;SHT31;66600;48.378;9.948;2023-02-19T00:33:10;8.69;77.18
77496;SHT31;66600;48.378;9.948;2023-02-19T00:35:36;8.71;77.03
77496;SHT31;66600;48.378;9.948;2023-02-19T00:38:02;8.72;77.10
77496;SHT31;66600;48.378;9.948;2023-02-19T00:40:27;8.73;77.02
77496;SHT31;66600;48.378;9.948;2023-02-19T00:42:52;8.73;76.98
77496;SHT31;66600;48.378;9.948;2023-02-19T00:45:18;8.75;77.05
77496;SHT31;66600;48.378;9.948;2023-02-19T00:47:43;8.68;77.27
77496;SHT31;66600;48.378;9.948;2023-02-19T00:50:09;8.61;77.50
77496;SHT31;66600;48.378;9.948;2023-02-19T00:52:35;8.61;77.52
77496;SHT31;66600;48.378;9.948;2023-02-19T00:55:00;8.64;77.49
77496;SHT31;66600;48.378;9.948;2023-02-19T00:57:26;8.61;77.54
77496;SHT31;66600;48.378;9.948;2023-02-19T00:59:51;8.62;77.69
77496;SHT31;66600;48.378;9.948;2023-02-19T01:02:16;8.67;77.41
77496;SHT31;66600;48.378;9.948;2023-02-19T01:04:42;8.68;77.49
77496;SHT31;66600;48.378;9.948;2023-02-19T01:07:07;8.69;77.51
77496;SHT31;66600;48.378;9.948;2023-02-19T01:09:32;8.67;77.67
77496;SHT31;66600;48.378;9.948;2023-02-19T01:11:57;8.69;77.50
77496;SHT31;66600;48.378;9.948;2023-02-19T01:14:23;8.73;77.36
77496;SHT31;66600;48.378;9.948;2023-02-19T01:16:48;8.64;77.69
77496;SHT31;66600;48.378;9.948;2023-02-19T01:19:13;8.65;77.74
77496;SHT31;66600;48.378;9.948;2023-02-19T01:21:39;8.61;78.06
77496;SHT31;66600;48.378;9.948;2023-02-19T01:24:04;8.61;77.98
77496;SHT31;66600;48.378;9.948;2023-02-19T01:26:31;8.54;78.22
77496;SHT31;66600;48.378;9.948;2023-02-19T01:28:58;8.61;78.13
77496;SHT31;66600;48.378;9.948;2023-02-19T01:31:24;8.58;78.16
77496;SHT31;66600;48.378;9.948;2023-02-19T01:33:52;8.55;78.33
77496;SHT31;66600;48.378;9.948;2023-02-19T01:36:18;8.54;78.52
77496;SHT31;66600;48.378;9.948;2023-02-19T01:38:44;8.51;78.52
77496;SHT31;66600;48.378;9.948;2023-02-19T01:41:12;8.55;78.17
77496;SHT31;66600;48.378;9.948;2023-02-19T01:43:58;8.57;78.23
77496;SHT31;66600;48.378;9.948;2023-02-19T01:46:25;8.54;78.30
77496;SHT31;66600;48.378;9.948;2023-02-19T01:48:51;8.51;78.57
77496;SHT31;66600;48.378;9.948;2023-02-19T01:51:18;8.47;78.77
77496;SHT31;66600;48.378;9.948;2023-02-19T01:53:46;8.50;78.63
77496;SHT31;66600;48.378;9.948;2023-02-19T01:56:16;8.48;78.66
77496;SHT31;66600;48.378;9.948;2023-02-19T01:58:43;8.45;78.78
77496;SHT31;66600;48.378;9.948;2023-02-19T02:01:09;8.44;78.81
77496;SHT31;66600;48.378;9.948;2023-02-19T02:03:35;8.48;78.66
77496;SHT31;66600;48.378;9.948;2023-02-19T02:06:14;8.47;78.74
77496;SHT31;66600;48.378;9.948;2023-02-19T02:08:41;8.48;78.56
77496;SHT31;66600;48.378;9.948;2023-02-19T02:11:25;8.48;78.72
77496;SHT31;66600;48.378;9.948;2023-02-19T02:13:51;8.48;78.70
77496;SHT31;66600;48.378;9.948;2023-02-19T02:16:22;8.50;78.54
77496;SHT31;66600;48.378;9.948;2023-02-19T02:21:55;8.55;78.57
77496;SHT31;66600;48.378;9.948;2023-02-19T02:24:48;8.51;78.61
77496;SHT31;66600;48.378;9.948;2023-02-19T02:32:45;8.50;78.66
77496;SHT31;66600;48.378;9.948;2023-02-19T02:35:19;8.52;78.42
77496;SHT31;66600;48.378;9.948;2023-02-19T02:37:46;8.52;78.54
77496;SHT31;66600;48.378;9.948;2023-02-19T02:40:12;8.51;78.79
77496;SHT31;66600;48.378;9.948;2023-02-19T02:42:38;8.45;79.12
77496;SHT31;66600;48.378;9.948;2023-02-19T02:48:05;8.41;79.36
77496;SHT31;66600;48.378;9.948;2023-02-19T02:50:37;8.41;79.52
77496;SHT31;66600;48.378;9.948;2023-02-19T02:53:09;8.40;79.40
77496;SHT31;66600;48.378;9.948;2023-02-19T02:55:54;8.38;79.34
77496;SHT31;66600;48.378;9.948;2023-02-19T02:58:22;8.40;79.38
77496;SHT31;66600;48.378;9.948;2023-02-19T03:00:54;8.37;79.39
77496;SHT31;66600;48.378;9.948;2023-02-19T03:03:40;8.34;79.46
77496;SHT31;66600;48.378;9.948;2023-02-19T03:06:10;8.33;79.61
77496;SHT31;66600;48.378;9.948;2023-02-19T03:09:24;8.34;79.66
77496;SHT31;66600;48.378;9.948;2023-02-19T03:11:30;8.26;79.91
77496;SHT31;66600;48.378;9.948;2023-02-19T03:14:19;8.24;79.86
77496;SHT31;66600;48.378;9.948;2023-02-19T03:17:14;8.24;79.97
77496;SHT31;66600;48.378;9.948;2023-02-19T03:20:02;8.22;80.09
77496;SHT31;66600;48.378;9.948;2023-02-19T03:22:32;8.20;80.32
77496;SHT31;66600;48.378;9.948;2023-02-19T03:25:03;8.19;80.33
77496;SHT31;66600;48.378;9.948;2023-02-19T03:27:47;8.13;80.56
77496;SHT31;66600;48.378;9.948;2023-02-19T03:30:18;8.14;80.40
77496;SHT31;66600;48.378;9.948;2023-02-19T03:32:48;8.10;80.74
77496;SHT31;66600;48.378;9.948;2023-02-19T03:35:30;8.10;80.66
77496;SHT31;66600;48.378;9.948;2023-02-19T03:41:08;7.97;81.11
77496;SHT31;66600;48.378;9.948;2023-02-19T03:43:52;7.92;81.15
77496;SHT31;66600;48.378;9.948;2023-02-19T03:46:34;7.93;81.07
77496;SHT31;66600;48.378;9.948;2023-02-19T03:49:05;7.89;81.21
77496;SHT31;66600;48.378;9.948;2023-02-19T03:51:41;7.95;80.85
77496;SHT31;66600;48.378;9.948;2023-02-19T03:54:46;7.93;80.96
77496;SHT31;66600;48.378;9.948;2023-02-19T03:59:58;7.85;81.22
77496;SHT31;66600;48.378;9.948;2023-02-19T04:05:20;7.85;81.15
77496;SHT31;66600;48.378;9.948;2023-02-19T04:07:49;7.83;81.16
77496;SHT31;66600;48.378;9.948;2023-02-19T04:10:16;7.87;81.13
77496;SHT31;66600;48.378;9.948;2023-02-19T04:12:47;7.85;81.14
77496;SHT31;66600;48.378;9.948;2023-02-19T04:15:16;7.92;80.78
77496;SHT31;66600;48.378;9.948;2023-02-19T04:17:48;7.87;80.95
77496;SHT31;66600;48.378;9.948;2023-02-19T04:20:15;7.86;80.92
77496;SHT31;66600;48.378;9.948;2023-02-19T04:22:42;7.78;81.19
77496;SHT31;66600;48.378;9.948;2023-02-19T04:25:07;7.76;81.33
77496;SHT31;66600;48.378;9.948;2023-02-19T04:27:37;7.75;81.24
77496;SHT31;66600;48.378;9.948;2023-02-19T04:30:04;7.76;81.15
77496;SHT31;66600;48.378;9.948;2023-02-19T04:32:30;7.89;80.58
77496;SHT31;66600;48.378;9.948;2023-02-19T04:34:55;7.87;80.65
77496;SHT31;66600;48.378;9.948;2023-02-19T04:37:20;7.86;80.75
77496;SHT31;66600;48.378;9.948;2023-02-19T04:39:46;7.92;80.27
77496;SHT31;66600;48.378;9.948;2023-02-19T04:42:11;7.93;80.31
77496;SHT31;66600;48.378;9.948;2023-02-19T04:44:36;7.95;80.20
77496;SHT31;66600;48.378;9.948;2023-02-19T04:47:02;7.95;80.15
77496;SHT31;66600;48.378;9.948;2023-02-19T04:49:27;7.97;80.17
77496;SHT31;66600;48.378;9.948;2023-02-19T04:51:53;7.93;80.26
77496;SHT31;66600;48.378;9.948;2023-02-19T04:54:18;7.89;80.28
77496;SHT31;66600;48.378;9.948;2023-02-19T04:56:43;7.79;80.69
77496;SHT31;66600;48.378;9.948;2023-02-19T04:59:08;7.72;80.77
77496;SHT31;66600;48.378;9.948;2023-02-19T05:01:34;7.72;80.74
77496;SHT31;66600;48.378;9.948;2023-02-19T05:03:59;7.71;80.80
77496;SHT31;66600;48.378;9.948;2023-02-19T05:06:24;7.74;80.76
77496;SHT31;66600;48.378;9.948;2023-02-19T05:08:50;7.75;80.76
77496;SHT31;66600;48.378;9.948;2023-02-19T05:11:15;7.72;80.80
77496;SHT31;66600;48.378;9.948;2023-02-19T05:13:40;7.75;80.79
77496;SHT31;66600;48.378;9.948;2023-02-19T05:16:10;7.75;80.89
77496;SHT31;66600;48.378;9.948;2023-02-19T05:18:38;7.75;80.85
77496;SHT31;66600;48.378;9.948;2023-02-19T05:21:03;7.75;81.02
77496;SHT31;66600;48.378;9.948;2023-02-19T05:23:29;7.81;80.79
77496;SHT31;66600;48.378;9.948;2023-02-19T05:25:54;7.83;80.74
77496;SHT31;66600;48.378;9.948;2023-02-19T05:28:19;7.82;80.80
77496;SHT31;66600;48.378;9.948;2023-02-19T05:30:52;7.79;81.00
77496;SHT31;66600;48.378;9.948;2023-02-19T05:33:19;7.69;81.37
77496;SHT31;66600;48.378;9.948;2023-02-19T05:35:47;7.74;81.25
77496;SHT31;66600;48.378;9.948;2023-02-19T05:38:13;7.75;81.21
77496;SHT31;66600;48.378;9.948;2023-02-19T05:40:39;7.69;81.53
77496;SHT31;66600;48.378;9.948;2023-02-19T05:43:04;7.69;81.64
77496;SHT31;66600;48.378;9.948;2023-02-19T05:45:30;7.81;81.50
77496;SHT31;66600;48.378;9.948;2023-02-19T05:47:55;7.85;81.28
77496;SHT31;66600;48.378;9.948;2023-02-19T05:50:21;7.96;81.89
77496;SHT31;66600;48.378;9.948;2023-02-19T05:52:46;8.10;81.69
77496;SHT31;66600;48.378;9.948;2023-02-19T05:55:11;8.16;81.82
77496;SHT31;66600;48.378;9.948;2023-02-19T05:57:41;8.27;81.83
77496;SHT31;66600;48.378;9.948;2023-02-19T06:00:08;8.29;81.83
77496;SHT31;66600;48.378;9.948;2023-02-19T06:02:35;8.29;82.00
77496;SHT31;66600;48.378;9.948;2023-02-19T06:05:00;8.27;82.50
77496;SHT31;66600;48.378;9.948;2023-02-19T06:07:25;8.27;82.74
77496;SHT31;66600;48.378;9.948;2023-02-19T06:09:51;8.16;83.74
77496;SHT31;66600;48.378;9.948;2023-02-19T06:12:16;8.04;84.91
77496;SHT31;66600;48.378;9.948;2023-02-19T06:14:41;7.96;85.67
77496;SHT31;66600;48.378;9.948;2023-02-19T06:17:06;7.87;86.40
77496;SHT31;66600;48.378;9.948;2023-02-19T06:19:32;7.82;87.08
77496;SHT31;66600;48.378;9.948;2023-02-19T06:21:57;7.76;86.88
77496;SHT31;66600;48.378;9.948;2023-02-19T06:24:22;7.79;87.06
77496;SHT31;66600;48.378;9.948;2023-02-19T06:26:47;7.71;87.38
77496;SHT31;66600;48.378;9.948;2023-02-19T06:29:13;7.74;87.19
77496;SHT31;66600;48.378;9.948;2023-02-19T06:31:38;7.71;87.44
77496;SHT31;66600;48.378;9.948;2023-02-19T06:34:04;7.74;85.93
77496;SHT31;66600;48.378;9.948;2023-02-19T06:36:29;7.79;86.39
77496;SHT31;66600;48.378;9.948;2023-02-19T06:38:58;7.78;86.79
77496;SHT31;66600;48.378;9.948;2023-02-19T06:41:23;7.76;86.80
77496;SHT31;66600;48.378;9.948;2023-02-19T06:43:49;7.79;86.36
77496;SHT31;66600;48.378;9.948;2023-02-19T06:46:14;7.82;86.18
77496;SHT31;66600;48.378;9.948;2023-02-19T06:48:42;7.83;85.62
77496;SHT31;66600;48.378;9.948;2023-02-19T06:51:14;7.74;86.39
77496;SHT31;66600;48.378;9.948;2023-02-19T06:53:40;7.65;87.53
77496;SHT31;66600;48.378;9.948;2023-02-19T06:56:20;7.61;87.29
77496;SHT31;66600;48.378;9.948;2023-02-19T06:58:46;7.58;87.73
77496;SHT31;66600;48.378;9.948;2023-02-19T07:01:11;7.58;87.64
77496;SHT31;66600;48.378;9.948;2023-02-19T07:03:37;7.66;86.32
77496;SHT31;66600;48.378;9.948;2023-02-19T07:06:02;7.66;86.22
77496;SHT31;66600;48.378;9.948;2023-02-19T07:08:27;7.85;83.02
77496;SHT31;66600;48.378;9.948;2023-02-19T07:10:55;7.95;82.07
77496;SHT31;66600;48.378;9.948;2023-02-19T07:13:20;8.02;81.59
77496;SHT31;66600;48.378;9.948;2023-02-19T07:15:45;8.06;81.09
77496;SHT31;66600;48.378;9.948;2023-02-19T07:18:11;8.10;80.62
77496;SHT31;66600;48.378;9.948;2023-02-19T07:20:36;8.16;79.68
77496;SHT31;66600;48.378;9.948;2023-02-19T07:23:02;8.22;79.43
77496;SHT31;66600;48.378;9.948;2023-02-19T07:25:27;8.20;80.18
77496;SHT31;66600;48.378;9.948;2023-02-19T07:27:52;8.29;78.88
77496;SHT31;66600;48.378;9.948;2023-02-19T07:30:18;8.30;79.16
77496;SHT31;66600;48.378;9.948;2023-02-19T07:32:43;8.30;79.17
77496;SHT31;66600;48.378;9.948;2023-02-19T07:35:10;8.31;79.20
77496;SHT31;66600;48.378;9.948;2023-02-19T07:37:35;8.37;77.95
77496;SHT31;66600;48.378;9.948;2023-02-19T07:40:00;8.41;78.27
77496;SHT31;66600;48.378;9.948;2023-02-19T07:42:26;8.42;78.32
77496;SHT31;66600;48.378;9.948;2023-02-19T07:44:51;8.50;78.37
77496;SHT31;66600;48.378;9.948;2023-02-19T07:47:16;8.45;78.97
77496;SHT31;66600;48.378;9.948;2023-02-19T07:49:41;8.16;79.36
77496;SHT31;66600;48.378;9.948;2023-02-19T07:52:07;7.78;82.70
77496;SHT31;66600;48.378;9.948;2023-02-19T07:54:32;7.64;83.80
77496;SHT31;66600;48.378;9.948;2023-02-19T07:56:57;7.57;83.88
77496;SHT31;66600;48.378;9.948;2023-02-19T07:59:23;7.57;82.78
77496;SHT31;66600;48.378;9.948;2023-02-19T08:01:49;7.46;82.65
77496;SHT31;66600;48.378;9.948;2023-02-19T08:04:33;7.28;84.20
77496;SHT31;66600;48.378;9.948;2023-02-19T08:06:58;7.14;84.21
77496;SHT31;66600;48.378;9.948;2023-02-19T08:09:23;7.16;84.00
77496;SHT31;66600;48.378;9.948;2023-02-19T08:11:49;7.16;84.26
77496;SHT31;66600;48.378;9.948;2023-02-19T08:14:32;7.21;83.06
77496;SHT31;66600;48.378;9.948;2023-02-19T08:16:58;7.28;82.05
77496;SHT31;66600;48.378;9.948;2023-02-19T08:19:23;7.27;81.99
77496;SHT31;66600;48.378;9.948;2023-02-19T08:21:49;7.38;79.98
77496;SHT31;66600;48.378;9.948;2023-02-19T08:24:15;7.43;79.11
77496;SHT31;66600;48.378;9.948;2023-02-19T08:26:40;7.58;77.55
77496;SHT31;66600;48.378;9.948;2023-02-19T08:29:05;7.51;78.12
77496;SHT31;66600;48.378;9.948;2023-02-19T08:31:32;7.57;79.10
77496;SHT31;66600;48.378;9.948;2023-02-19T08:33:57;7.55;79.04
77496;SHT31;66600;48.378;9.948;2023-02-19T08:36:23;7.62;79.24
77496;SHT31;66600;48.378;9.948;2023-02-19T08:38:48;7.66;79.42
77496;SHT31;66600;48.378;9.948;2023-02-19T08:41:14;7.69;77.53
77496;SHT31;66600;48.378;9.948;2023-02-19T08:43:40;7.68;78.01
77496;SHT31;66600;48.378;9.948;2023-02-19T08:46:06;7.69;78.17
77496;SHT31;66600;48.378;9.948;2023-02-19T08:48:34;7.68;77.96
77496;SHT31;66600;48.378;9.948;2023-02-19T08:51:02;7.71;77.66
77496;SHT31;66600;48.378;9.948;2023-02-19T08:53:30;7.78;77.39
77496;SHT31;66600;48.378;9.948;2023-02-19T08:55:55;7.85;76.17
77496;SHT31;66600;48.378;9.948;2023-02-19T08:58:21;7.95;75.66
77496;SHT31;66600;48.378;9.948;2023-02-19T09:00:47;8.06;75.26
77496;SHT31;66600;48.378;9.948;2023-02-19T09:03:12;8.17;74.40
77496;SHT31;66600;48.378;9.948;2023-02-19T09:05:38;8.24;74.39
77496;SHT31;66600;48.378;9.948;2023-02-19T09:08:03;8.30;73.70
77496;SHT31;66600;48.378;9.948;2023-02-19T09:10:29;8.33;73.81
77496;SHT31;66600;48.378;9.948;2023-02-19T09:12:54;8.34;74.92
77496;SHT31;66600;48.378;9.948;2023-02-19T09:15:19;8.29;75.16
77496;SHT31;66600;48.378;9.948;2023-02-19T09:17:50;8.30;73.68
77496;SHT31;66600;48.378;9.948;2023-02-19T09:20:15;8.30;73.88
77496;SHT31;66600;48.378;9.948;2023-02-19T09:22:40;8.24;74.51
77496;SHT31;66600;48.378;9.948;2023-02-19T09:25:06;8.14;76.26
77496;SHT31;66600;48.378;9.948;2023-02-19T09:27:31;8.02;76.35
77496;SHT31;66600;48.378;9.948;2023-02-19T09:29:57;8.03;76.39
77496;SHT31;66600;48.378;9.948;2023-02-19T09:32:22;8.09;76.45
77496;SHT31;66600;48.378;9.948;2023-02-19T09:34:48;8.20;76.24
77496;SHT31;66600;48.378;9.948;2023-02-19T09:37:13;8.24;76.36
77496;SHT31;66600;48.378;9.948;2023-02-19T09:39:39;8.23;77.05
77496;SHT31;66600;48.378;9.948;2023-02-19T09:42:19;8.24;77.78
77496;SHT31;66600;48.378;9.948;2023-02-19T09:44:49;8.24;77.39
77496;SHT31;66600;48.378;9.948;2023-02-19T09:47:18;8.04;77.42
77496;SHT31;66600;48.378;9.948;2023-02-19T09:49:46;8.00;78.75
77496;SHT31;66600;48.378;9.948;2023-02-19T09:54:45;8.16;79.39
77496;SHT31;66600;48.378;9.948;2023-02-19T09:57:14;8.07;77.05
77496;SHT31;66600;48.378;9.948;2023-02-19T09:59:42;8.02;77.81
77496;SHT31;66600;48.378;9.948;2023-02-19T10:02:13;8.03;78.66
77496;SHT31;66600;48.378;9.948;2023-02-19T10:04:41;8.07;78.90
77496;SHT31;66600;48.378;9.948;2023-02-19T10:07:55;8.10;77.33
77496;SHT31;66600;48.378;9.948;2023-02-19T10:10:04;8.07;75.65
77496;SHT31;66600;48.378;9.948;2023-02-19T10:12:38;8.09;75.86
77496;SHT31;66600;48.378;9.948;2023-02-19T10:15:13;8.10;76.69
77496;SHT31;66600;48.378;9.948;2023-02-19T10:17:40;8.13;76.59
77496;SHT31;66600;48.378;9.948;2023-02-19T10:20:05;8.23;75.58
77496;SHT31;66600;48.378;9.948;2023-02-19T10:22:31;8.31;76.90
77496;SHT31;66600;48.378;9.948;2023-02-19T10:24:58;8.26;76.60
77496;SHT31;66600;48.378;9.948;2023-02-19T10:27:26;8.22;77.55
77496;SHT31;66600;48.378;9.948;2023-02-19T10:29:53;8.14;76.85
77496;SHT31;66600;48.378;9.948;2023-02-19T10:32:21;8.09;77.00
77496;SHT31;66600;48.378;9.948;2023-02-19T10:37:45;8.02;78.84
77496;SHT31;66600;48.378;9.948;2023-02-19T10:40:21;7.92;78.58
77496;SHT31;66600;48.378;9.948;2023-02-19T10:42:49;7.85;78.82
77496;SHT31;66600;48.378;9.948;2023-02-19T10:45:22;7.81;79.32
77496;SHT31;66600;48.378;9.948;2023-02-19T10:47:49;7.72;80.92
77496;SHT31;66600;48.378;9.948;2023-02-19T10:50:40;7.66;80.02
77496;SHT31;66600;48.378;9.948;2023-02-19T10:53:20;7.61;80.78
77496;SHT31;66600;48.378;9.948;2023-02-19T10:55:47;7.69;80.98
77496;SHT31;66600;48.378;9.948;2023-02-19T10:58:24;7.72;81.44
77496;SHT31;66600;48.378;9.948;2023-02-19T11:01:13;7.71;79.53
77496;SHT31;66600;48.378;9.948;2023-02-19T11:03:39;7.85;79.01
77496;SHT31;66600;48.378;9.948;2023-02-19T11:06:07;8.38;78.11
77496;SHT31;66600;48.378;9.948;2023-02-19T11:08:44;8.51;77.82
77496;SHT31;66600;48.378;9.948;2023-02-19T11:11:27;8.67;77.43
77496;SHT31;66600;48.378;9.948;2023-02-19T11:13:54;8.44;74.80
77496;SHT31;66600;48.378;9.948;2023-02-19T11:16:20;8.50;74.47
77496;SHT31;66600;48.378;9.948;2023-02-19T11:18:53;8.57;74.57
77496;SHT31;66600;48.378;9.948;2023-02-19T11:21:26;8.58;74.07
77496;SHT31;66600;48.378;9.948;2023-02-19T11:23:57;8.72;75.88
77496;SHT31;66600;48.378;9.948;2023-02-19T11:26:24;8.58;75.52
77496;SHT31;66600;48.378;9.948;2023-02-19T11:28:58;8.34;76.81
77496;SHT31;66600;48.378;9.948;2023-02-19T11:31:29;8.17;78.50
77496;SHT31;66600;48.378;9.948;2023-02-19T11:34:02;8.07;78.08
77496;SHT31;66600;48.378;9.948;2023-02-19T11:36:37;8.00;78.07
77496;SHT31;66600;48.378;9.948;2023-02-19T11:42:01;7.78;78.89
77496;SHT31;66600;48.378;9.948;2023-02-19T11:45:11;7.71;77.98
77496;SHT31;66600;48.378;9.948;2023-02-19T11:48:11;7.68;77.64
77496;SHT31;66600;48.378;9.948;2023-02-19T11:50:51;7.65;77.57
77496;SHT31;66600;48.378;9.948;2023-02-19T11:53:31;7.64;76.84
77496;SHT31;66600;48.378;9.948;2023-02-19T11:56:22;7.74;75.50
77496;SHT31;66600;48.378;9.948;2023-02-19T11:59:06;7.92;73.24
77496;SHT31;66600;48.378;9.948;2023-02-19T12:01:59;8.16;71.84
77496;SHT31;66600;48.378;9.948;2023-02-19T12:07:38;8.51;70.48
77496;SHT31;66600;48.378;9.948;2023-02-19T12:26:35;8.82;70.80
77496;SHT31;66600;48.378;9.948;2023-02-19T12:40:16;8.67;71.21
77496;SHT31;66600;48.378;9.948;2023-02-19T12:43:05;8.47;73.26
77496;SHT31;66600;48.378;9.948;2023-02-19T12:45:41;8.48;72.41
77496;SHT31;66600;48.378;9.948;2023-02-19T12:50:57;8.54;70.37
77496;SHT31;66600;48.378;9.948;2023-02-19T12:53:31;8.64;69.19
77496;SHT31;66600;48.378;9.948;2023-02-19T12:55:59;8.64;68.33
77496;SHT31;66600;48.378;9.948;2023-02-19T12:58:43;8.58;68.23
77496;SHT31;66600;48.378;9.948;2023-02-19T13:01:13;8.67;68.64
77496;SHT31;66600;48.378;9.948;2023-02-19T13:03:46;8.76;68.21
77496;SHT31;66600;48.378;9.948;2023-02-19T13:06:29;8.86;68.02
77496;SHT31;66600;48.378;9.948;2023-02-19T13:09:02;9.02;68.24
77496;SHT31;66600;48.378;9.948;2023-02-19T13:16:57;9.57;66.00
77496;SHT31;66600;48.378;9.948;2023-02-19T13:19:25;9.64;67.38
77496;SHT31;66600;48.378;9.948;2023-02-19T13:22:00;9.82;66.07
77496;SHT31;66600;48.378;9.948;2023-02-19T13:24:45;10.03;65.98
77496;SHT31;66600;48.378;9.948;2023-02-19T13:30:11;10.17;62.72
77496;SHT31;66600;48.378;9.948;2023-02-19T13:32:53;10.20;64.99
77496;SHT31;66600;48.378;9.948;2023-02-19T13:38:03;9.88;63.55
77496;SHT31;66600;48.378;9.948;2023-02-19T13:40:38;9.64;64.94
77496;SHT31;66600;48.378;9.948;2023-02-19T13:43:06;9.59;66.85
77496;SHT31;66600;48.378;9.948;2023-02-19T13:45:42;9.47;65.94
77496;SHT31;66600;48.378;9.948;2023-02-19T13:48:24;9.36;66.64
77496;SHT31;66600;48.378;9.948;2023-02-19T13:58:55;9.09;66.59
77496;SHT31;66600;48.378;9.948;2023-02-19T14:04:19;9.20;64.80
77496;SHT31;66600;48.378;9.948;2023-02-19T14:14:50;9.43;65.02
77496;SHT31;66600;48.378;9.948;2023-02-19T14:28:00;9.38;63.46
77496;SHT31;66600;48.378;9.948;2023-02-19T14:30:26;9.48;63.36
77496;SHT31;66600;48.378;9.948;2023-02-19T14:32:52;9.51;63.73
77496;SHT31;66600;48.378;9.948;2023-02-19T14:35:19;9.65;64.30
77496;SHT31;66600;48.378;9.948;2023-02-19T14:37:46;9.68;62.05
77496;SHT31;66600;48.378;9.948;2023-02-19T14:40:19;9.74;63.49
77496;SHT31;66600;48.378;9.948;2023-02-19T14:42:46;9.88;62.87
77496;SHT31;66600;48.378;9.948;2023-02-19T14:45:14;9.98;63.38
77496;SHT31;66600;48.378;9.948;2023-02-19T14:47:42;10.08;64.16
77496;SHT31;66600;48.378;9.948;2023-02-19T14:50:13;10.23;64.41
77496;SHT31;66600;48.378;9.948;2023-02-19T14:52:46;10.20;62.86
77496;SHT31;66600;48.378;9.948;2023-02-19T14:55:32;10.23;64.05
77496;SHT31;66600;48.378;9.948;2023-02-19T14:58:03;10.19;62.79
77496;SHT31;66600;48.378;9.948;2023-02-19T15:00:37;10.12;61.60
77496;SHT31;66600;48.378;9.948;2023-02-19T15:03:04;10.12;62.08
77496;SHT31;66600;48.378;9.948;2023-02-19T15:05:31;10.03;62.25
77496;SHT31;66600;48.378;9.948;2023-02-19T15:07:59;9.95;61.09
77496;SHT31;66600;48.378;9.948;2023-02-19T15:10:29;9.95;61.40
77496;SHT31;66600;48.378;9.948;2023-02-19T15:12:58;9.82;60.94
77496;SHT31;66600;48.378;9.948;2023-02-19T15:15:29;9.74;61.94
77496;SHT31;66600;48.378;9.948;2023-02-19T15:17:57;9.47;61.09
77496;SHT31;66600;48.378;9.948;2023-02-19T15:20:30;9.44;60.53
77496;SHT31;66600;48.378;9.948;2023-02-19T15:22:57;9.41;61.04
77496;SHT31;66600;48.378;9.948;2023-02-19T15:25:29;9.41;60.91
77496;SHT31;66600;48.378;9.948;2023-02-19T15:31:03;9.16;60.57
77496;SHT31;66600;48.378;9.948;2023-02-19T15:33:32;9.13;61.09
77496;SHT31;66600;48.378;9.948;2023-02-19T15:36:00;9.13;61.09
77496;SHT31;66600;48.378;9.948;2023-02-19T15:38:27;9.12;62.01
77496;SHT31;66600;48.378;9.948;2023-02-19T15:40:53;9.13;62.46
77496;SHT31;66600;48.378;9.948;2023-02-19T15:43:24;9.12;62.93
77496;SHT31;66600;48.378;9.948;2023-02-19T15:45:55;9.02;64.36
77496;SHT31;66600;48.378;9.948;2023-02-19T15:48:26;9.07;65.84
77496;SHT31;66600;48.378;9.948;2023-02-19T15:50:59;9.05;66.73
77496;SHT31;66600;48.378;9.948;2023-02-19T15:53:35;9.02;68.89
77496;SHT31;66600;48.378;9.948;2023-02-19T15:56:06;8.82;66.89
77496;SHT31;66600;48.378;9.948;2023-02-19T16:03:38;8.17;71.84
77496;SHT31;66600;48.378;9.948;2023-02-19T16:06:09;7.83;73.98
77496;SHT31;66600;48.378;9.948;2023-02-19T16:08:37;7.48;76.05
77496;SHT31;66600;48.378;9.948;2023-02-19T16:11:06;7.32;76.33
77496;SHT31;66600;48.378;9.948;2023-02-19T16:13:50;7.23;78.11
77496;SHT31;66600;48.378;9.948;2023-02-19T16:16:22;7.23;77.53
77496;SHT31;66600;48.378;9.948;2023-02-19T16:19:01;7.28;76.37
77496;SHT31;66600;48.378;9.948;2023-02-19T16:21:27;7.34;76.10
77496;SHT31;66600;48.378;9.948;2023-02-19T16:24:00;7.40;75.76
77496;SHT31;66600;48.378;9.948;2023-02-19T16:26:27;7.44;75.68
77496;SHT31;66600;48.378;9.948;2023-02-19T16:28:53;7.46;75.37
77496;SHT31;66600;48.378;9.948;2023-02-19T16:31:20;7.50;74.10
77496;SHT31;66600;48.378;9.948;2023-02-19T16:33:47;7.57;74.01
77496;SHT31;66600;48.378;9.948;2023-02-19T16:36:37;7.52;74.84
77496;SHT31;66600;48.378;9.948;2023-02-19T16:47:06;7.55;74.94
77496;SHT31;66600;48.378;9.948;2023-02-19T16:49:31;7.54;75.26
77496;SHT31;66600;48.378;9.948;2023-02-19T16:52:00;7.52;75.57
77496;SHT31;66600;48.378;9.948;2023-02-19T16:54:26;7.43;76.46
77496;SHT31;66600;48.378;9.948;2023-02-19T16:56:51;7.41;76.41
77496;SHT31;66600;48.378;9.948;2023-02-19T16:59:16;7.46;75.51
77496;SHT31;66600;48.378;9.948;2023-02-19T17:01:41;7.46;75.37
77496;SHT31;66600;48.378;9.948;2023-02-19T17:04:09;7.44;75.33
77496;SHT31;66600;48.378;9.948;2023-02-19T17:06:36;7.40;75.64
77496;SHT31;66600;48.378;9.948;2023-02-19T17:09:02;7.37;76.02
77496;SHT31;66600;48.378;9.948;2023-02-19T17:11:28;7.35;75.92
77496;SHT31;66600;48.378;9.948;2023-02-19T17:13:53;7.28;76.05
77496;SHT31;66600;48.378;9.948;2023-02-19T17:16:26;7.32;75.78
77496;SHT31;66600;48.378;9.948;2023-02-19T17:18:53;7.37;75.48
77496;SHT31;66600;48.378;9.948;2023-02-19T17:21:20;7.35;75.45
77496;SHT31;66600;48.378;9.948;2023-02-19T17:23:47;7.40;75.27
77496;SHT31;66600;48.378;9.948;2023-02-19T17:26:14;7.40;75.63
77496;SHT31;66600;48.378;9.948;2023-02-19T17:28:39;7.35;75.80
77496;SHT31;66600;48.378;9.948;2023-02-19T17:31:04;7.35;75.83
77496;SHT31;66600;48.378;9.948;2023-02-19T17:33:30;7.34;76.08
77496;SHT31;66600;48.378;9.948;2023-02-19T17:35:55;7.32;76.24
77496;SHT31;66600;48.378;9.948;2023-02-19T17:38:20;7.37;76.04
77496;SHT31;66600;48.378;9.948;2023-02-19T17:40:46;7.41;76.22
77496;SHT31;66600;48.378;9.948;2023-02-19T17:43:11;7.37;76.97
77496;SHT31;66600;48.378;9.948;2023-02-19T17:45:37;7.30;77.10
77496;SHT31;66600;48.378;9.948;2023-02-19T17:48:02;7.24;77.29
77496;SHT31;66600;48.378;9.948;2023-02-19T17:50:29;7.24;77.45
77496;SHT31;66600;48.378;9.948;2023-02-19T17:52:55;7.28;77.18
77496;SHT31;66600;48.378;9.948;2023-02-19T17:55:20;7.30;77.36
77496;SHT31;66600;48.378;9.948;2023-02-19T17:57:47;7.24;77.23